Time;durP1;ratioP1;P1;durP2;ratioP2;P2;SDS_P1;SDS_P2;PMS_P1;PMS_P2;Temp;Humidity;BMP_temperature;BMP_pressure;BME280_temperature;BME280_humidity;BME280_pressure;Samples;Min_cycle;Max_cycle;Signal;HPM_P1;HPM_P2
2022/07/22 00:01:38;;;;;;;;;;;19.20;99.90;;;;;;5075489;28;20379;-70
2022/07/22 00:04:04;;;;;;;;;;;19.20;99.90;;;;;;5075699;28;19911;-70
2022/07/22 00:06:30;;;;;;;;;;;19.20;99.90;;;;;;5076689;28;19904;-70
2022/07/22 00:08:55;;;;;;;;;;;19.20;99.90;;;;;;5076595;28;19912;-70
2022/07/22 00:11:21;;;;;;;;;;;19.30;99.90;;;;;;5077700;28;19958;-71
2022/07/22 00:13:47;;;;;;;;;;;19.20;99.90;;;;;;5076534;28;19904;-72
2022/07/22 00:16:13;;;;;;;;;;;19.20;99.90;;;;;;5076504;28;19904;-72
2022/07/22 00:18:38;;;;;;;;;;;19.10;99.90;;;;;;5076469;28;20021;-72
2022/07/22 00:21:04;;;;;;;;;;;19.00;99.90;;;;;;5076448;28;19940;-72
2022/07/22 00:23:30;;;;;;;;;;;19.00;99.90;;;;;;5076464;28;19911;-72
2022/07/22 00:25:55;;;;;;;;;;;18.90;99.90;;;;;;5076344;28;20300;-72
2022/07/22 00:28:21;;;;;;;;;;;18.80;99.90;;;;;;5076355;28;19904;-72
2022/07/22 00:30:46;;;;;;;;;;;18.80;99.90;;;;;;5076487;28;19908;-72
2022/07/22 00:33:12;;;;;;;;;;;18.80;99.90;;;;;;5074989;28;19950;-72
2022/07/22 00:35:38;;;;;;;;;;;18.70;99.90;;;;;;5076099;28;19956;-72
2022/07/22 00:38:03;;;;;;;;;;;18.70;99.90;;;;;;5075764;28;19905;-72
2022/07/22 00:40:29;;;;;;;;;;;18.70;99.90;;;;;;5076116;28;19904;-72
2022/07/22 00:42:54;;;;;;;;;;;18.60;99.90;;;;;;5076036;28;19904;-71
2022/07/22 00:45:20;;;;;;;;;;;18.50;99.90;;;;;;5075965;28;19905;-72
2022/07/22 00:47:45;;;;;;;;;;;18.40;99.90;;;;;;5075955;28;20000;-72
2022/07/22 00:50:11;;;;;;;;;;;18.40;99.90;;;;;;5075888;28;19955;-72
2022/07/22 00:52:37;;;;;;;;;;;18.30;99.90;;;;;;5075896;28;19954;-72
2022/07/22 00:55:04;;;;;;;;;;;18.30;99.90;;;;;;5074826;28;19905;-72
2022/07/22 00:57:29;;;;;;;;;;;18.20;99.90;;;;;;5075832;28;19911;-72
2022/07/22 00:59:55;;;;;;;;;;;18.10;99.90;;;;;;5075762;28;20274;-72
2022/07/22 01:02:21;;;;;;;;;;;18.10;99.90;;;;;;5075548;28;19904;-73
2022/07/22 01:04:46;;;;;;;;;;;18.20;99.90;;;;;;5075077;28;19989;-72
2022/07/22 01:07:12;;;;;;;;;;;18.20;99.90;;;;;;5075543;28;19904;-71
2022/07/22 01:09:37;;;;;;;;;;;18.20;99.90;;;;;;5073177;28;19914;-72
2022/07/22 01:12:03;;;;;;;;;;;18.30;99.90;;;;;;5075134;28;20349;-72
2022/07/22 01:14:29;;;;;;;;;;;18.30;99.90;;;;;;5075157;28;20018;-72
2022/07/22 01:16:54;;;;;;;;;;;18.30;99.90;;;;;;5075205;28;19904;-72
2022/07/22 01:19:20;;;;;;;;;;;18.20;99.90;;;;;;5075113;28;19904;-72
2022/07/22 01:21:45;;;;;;;;;;;18.10;99.90;;;;;;5075097;28;19908;-72
2022/07/22 01:24:11;;;;;;;;;;;18.10;99.90;;;;;;5074193;28;19958;-72
2022/07/22 01:26:37;;;;;;;;;;;18.00;99.90;;;;;;5074798;28;20356;-72
2022/07/22 01:29:02;;;;;;;;;;;18.00;99.90;;;;;;5074912;28;19908;-72
2022/07/22 01:31:28;;;;;;;;;;;17.80;99.90;;;;;;5073666;28;19905;-72
2022/07/22 01:33:54;;;;;;;;;;;17.80;99.90;;;;;;5074775;28;19909;-72
2022/07/22 01:36:19;;;;;;;;;;;17.70;99.90;;;;;;5074786;28;19908;-72
2022/07/22 01:38:45;;;;;;;;;;;17.60;99.90;;;;;;5074886;28;19910;-72
2022/07/22 01:41:11;;;;;;;;;;;17.60;99.90;;;;;;5074945;28;20382;-72
2022/07/22 01:43:36;;;;;;;;;;;17.60;99.90;;;;;;5074802;28;19912;-72
2022/07/22 01:46:02;;;;;;;;;;;17.60;99.90;;;;;;5074762;28;20272;-71
2022/07/22 01:48:28;;;;;;;;;;;17.60;99.90;;;;;;5074442;28;19904;-72
2022/07/22 01:50:53;;;;;;;;;;;17.70;99.90;;;;;;5072987;28;19944;-72
2022/07/22 01:53:19;;;;;;;;;;;17.70;99.90;;;;;;5074712;28;19905;-72
2022/07/22 01:55:45;;;;;;;;;;;17.80;99.90;;;;;;5074515;28;19911;-72
2022/07/22 01:58:11;;;;;;;;;;;17.70;99.90;;;;;;5075172;28;19951;-72
2022/07/22 02:00:36;;;;;;;;;;;17.70;99.90;;;;;;5074572;28;19912;-72
2022/07/22 02:03:02;;;;;;;;;;;17.70;99.90;;;;;;5074744;28;19953;-72
2022/07/22 02:05:27;;;;;;;;;;;17.80;99.90;;;;;;5074387;28;19911;-72
2022/07/22 02:07:58;;;;;;;;;;;17.80;99.90;;;;;;5074396;28;19905;-72
2022/07/22 02:10:23;;;;;;;;;;;17.80;99.90;;;;;;5074296;28;19916;-72
2022/07/22 02:12:49;;;;;;;;;;;17.80;99.90;;;;;;5074268;28;20349;-72
2022/07/22 02:15:14;;;;;;;;;;;17.80;99.90;;;;;;5074456;28;19912;-72
2022/07/22 02:17:40;;;;;;;;;;;17.90;99.90;;;;;;5074512;28;19909;-73
2022/07/22 02:20:06;;;;;;;;;;;17.80;99.90;;;;;;5074212;28;19930;-72
2022/07/22 02:22:31;;;;;;;;;;;17.80;99.90;;;;;;5074161;28;19911;-72
2022/07/22 02:24:57;;;;;;;;;;;17.80;99.90;;;;;;5074064;28;19927;-72
2022/07/22 02:27:22;;;;;;;;;;;17.70;99.90;;;;;;5074087;28;20272;-72
2022/07/22 02:29:47;;;;;;;;;;;17.70;99.90;;;;;;5074280;28;19908;-72
2022/07/22 02:32:13;;;;;;;;;;;17.70;99.90;;;;;;5074609;28;19904;-72
2022/07/22 02:34:38;;;;;;;;;;;17.60;99.90;;;;;;5072568;28;19962;-72
2022/07/22 02:37:04;;;;;;;;;;;17.70;99.90;;;;;;5074015;28;19909;-72
2022/07/22 02:39:30;;;;;;;;;;;17.70;99.90;;;;;;5073972;28;20273;-72
2022/07/22 02:41:55;;;;;;;;;;;17.70;99.90;;;;;;5073933;28;19943;-72
2022/07/22 02:44:21;;;;;;;;;;;17.70;99.90;;;;;;5073798;28;19904;-72
2022/07/22 02:46:46;;;;;;;;;;;17.70;99.90;;;;;;5074116;28;20401;-72
2022/07/22 02:49:12;;;;;;;;;;;17.70;99.90;;;;;;5073776;28;19930;-72
2022/07/22 02:51:37;;;;;;;;;;;17.70;99.90;;;;;;5074066;28;19904;-72
2022/07/22 02:54:03;;;;;;;;;;;17.70;99.90;;;;;;5073781;28;19991;-72
2022/07/22 02:56:28;;;;;;;;;;;17.60;99.90;;;;;;5074026;28;19955;-72
2022/07/22 02:58:54;;;;;;;;;;;17.60;99.90;;;;;;5074272;28;19905;-72
2022/07/22 03:01:20;;;;;;;;;;;17.60;99.90;;;;;;5073858;28;19911;-72
2022/07/22 03:03:45;;;;;;;;;;;17.60;99.90;;;;;;5073676;28;19912;-72
2022/07/22 03:06:11;;;;;;;;;;;17.50;99.90;;;;;;5073605;28;19939;-72
2022/07/22 03:08:37;;;;;;;;;;;17.50;99.90;;;;;;5073868;28;19905;-72
2022/07/22 03:11:03;;;;;;;;;;;17.50;99.90;;;;;;5073692;28;19940;-72
2022/07/22 03:13:28;;;;;;;;;;;17.50;99.90;;;;;;5073653;28;20382;-72
2022/07/22 03:15:54;;;;;;;;;;;17.40;99.90;;;;;;5074120;28;20361;-72
2022/07/22 03:18:19;;;;;;;;;;;17.40;99.90;;;;;;5072360;28;19904;-72
2022/07/22 03:20:45;;;;;;;;;;;17.40;99.90;;;;;;5073549;28;19957;-72
2022/07/22 03:23:10;;;;;;;;;;;17.40;99.90;;;;;;5073580;28;19909;-72
2022/07/22 03:25:36;;;;;;;;;;;17.40;99.90;;;;;;5073443;28;19915;-72
2022/07/22 03:28:01;;;;;;;;;;;17.40;99.90;;;;;;5073465;28;19927;-72
2022/07/22 03:30:27;;;;;;;;;;;17.30;99.90;;;;;;5072089;28;19998;-72
2022/07/22 03:32:52;;;;;;;;;;;17.30;99.90;;;;;;5073440;28;20002;-72
2022/07/22 03:35:18;;;;;;;;;;;17.30;99.90;;;;;;5073234;28;19919;-72
2022/07/22 03:37:44;;;;;;;;;;;17.30;99.90;;;;;;5073402;28;20369;-72
2022/07/22 03:40:10;;;;;;;;;;;17.20;99.90;;;;;;5073382;28;19942;-72
2022/07/22 03:42:35;;;;;;;;;;;17.20;99.90;;;;;;5073945;28;19904;-72
2022/07/22 03:45:01;;;;;;;;;;;17.20;99.90;;;;;;5073538;28;19911;-72
2022/07/22 03:47:27;;;;;;;;;;;17.10;99.90;;;;;;5072051;28;19928;-72
2022/07/22 03:49:52;;;;;;;;;;;17.10;99.90;;;;;;5073172;28;19915;-72
2022/07/22 03:52:18;;;;;;;;;;;17.10;99.90;;;;;;5071992;28;19905;-72
2022/07/22 03:54:44;;;;;;;;;;;17.10;99.90;;;;;;5073135;28;20363;-72
2022/07/22 03:57:09;;;;;;;;;;;17.10;99.90;;;;;;5073424;28;19911;-72
2022/07/22 03:59:35;;;;;;;;;;;17.10;99.90;;;;;;5073468;28;20003;-73
2022/07/22 04:02:01;;;;;;;;;;;17.10;99.90;;;;;;5073133;28;19904;-72
2022/07/22 04:04:27;;;;;;;;;;;17.00;99.90;;;;;;5073063;28;19954;-72
2022/07/22 04:06:52;;;;;;;;;;;17.00;99.90;;;;;;5073125;28;19905;-72
2022/07/22 04:09:18;;;;;;;;;;;17.00;99.90;;;;;;5073030;28;19958;-73
2022/07/22 04:11:44;;;;;;;;;;;17.00;99.90;;;;;;5073034;28;20372;-73
2022/07/22 04:14:09;;;;;;;;;;;17.00;99.90;;;;;;5075161;28;19904;-72
2022/07/22 04:16:35;;;;;;;;;;;17.00;99.90;;;;;;5076850;28;19904;-73
2022/07/22 04:19:01;;;;;;;;;;;17.00;99.90;;;;;;5076794;28;19904;-72
2022/07/22 04:21:27;;;;;;;;;;;17.00;99.90;;;;;;5076506;28;19905;-73
2022/07/22 04:23:53;;;;;;;;;;;17.00;99.90;;;;;;5076464;28;20110;-73
2022/07/22 04:26:18;;;;;;;;;;;17.00;99.90;;;;;;5076349;28;20004;-73
2022/07/22 04:28:45;;;;;;;;;;;17.00;99.90;;;;;;5076280;28;19912;-72
2022/07/22 04:31:10;;;;;;;;;;;17.00;99.90;;;;;;5076582;28;19998;-72
2022/07/22 04:33:36;;;;;;;;;;;17.00;99.90;;;;;;5076272;28;19951;-72
2022/07/22 04:36:01;;;;;;;;;;;17.00;99.90;;;;;;5076431;28;19913;-72
2022/07/22 04:38:27;;;;;;;;;;;17.00;99.90;;;;;;5076555;28;20353;-72
2022/07/22 04:40:53;;;;;;;;;;;16.90;99.90;;;;;;5076132;28;19928;-73
2022/07/22 04:43:18;;;;;;;;;;;16.90;99.90;;;;;;5076479;28;20371;-72
2022/07/22 04:45:44;;;;;;;;;;;16.90;99.90;;;;;;5074733;28;19978;-72
2022/07/22 04:48:09;;;;;;;;;;;17.00;99.90;;;;;;5076073;28;19911;-72
2022/07/22 04:50:38;;;;;;;;;;;17.00;99.90;;;;;;5075871;28;19909;-72
2022/07/22 04:53:04;;;;;;;;;;;17.00;99.90;;;;;;5075940;28;19904;-72
2022/07/22 04:55:30;;;;;;;;;;;17.00;99.90;;;;;;5074571;28;19911;-72
2022/07/22 04:57:55;;;;;;;;;;;17.10;99.90;;;;;;5075824;28;19904;-71
2022/07/22 05:00:21;;;;;;;;;;;17.10;99.90;;;;;;5075731;28;19950;-72
2022/07/22 05:02:46;;;;;;;;;;;17.10;99.90;;;;;;5075726;28;20053;-72
2022/07/22 05:05:12;;;;;;;;;;;17.10;99.90;;;;;;5075621;28;19904;-72
2022/07/22 05:07:38;;;;;;;;;;;17.10;99.90;;;;;;5075909;28;19904;-72
2022/07/22 05:10:04;;;;;;;;;;;17.10;99.90;;;;;;5075576;28;19909;-72
2022/07/22 05:12:29;;;;;;;;;;;17.20;99.90;;;;;;5075424;28;19904;-72
2022/07/22 05:14:55;;;;;;;;;;;17.20;99.90;;;;;;5075594;28;19904;-73
2022/07/22 05:17:20;;;;;;;;;;;17.30;99.90;;;;;;5075404;28;20394;-72
2022/07/22 05:19:46;;;;;;;;;;;17.30;99.90;;;;;;5075662;28;19915;-73
2022/07/22 05:22:12;;;;;;;;;;;17.40;99.90;;;;;;5075333;28;19990;-73
2022/07/22 05:24:37;;;;;;;;;;;17.40;99.90;;;;;;5074292;28;19991;-73
2022/07/22 05:27:03;;;;;;;;;;;17.40;99.90;;;;;;5075230;28;19911;-72
2022/07/22 05:29:28;;;;;;;;;;;17.50;99.90;;;;;;5075098;28;19909;-73
2022/07/22 05:31:54;;;;;;;;;;;17.40;99.90;;;;;;5075149;28;19904;-72
2022/07/22 05:34:20;;;;;;;;;;;17.50;99.90;;;;;;5075120;28;19912;-73
2022/07/22 05:36:45;;;;;;;;;;;17.50;99.90;;;;;;5073765;28;19908;-72
2022/07/22 05:39:11;;;;;;;;;;;17.50;99.90;;;;;;5074982;28;20352;-73
2022/07/22 05:41:37;;;;;;;;;;;17.60;99.90;;;;;;5074938;28;20280;-72
2022/07/22 05:44:03;;;;;;;;;;;17.70;99.90;;;;;;5074845;28;20470;-72
2022/07/22 05:46:28;;;;;;;;;;;17.80;99.90;;;;;;5074807;28;19932;-72
2022/07/22 05:48:54;;;;;;;;;;;17.80;99.90;;;;;;5074705;28;19908;-72
2022/07/22 05:51:20;;;;;;;;;;;17.90;99.90;;;;;;5073437;28;19950;-71
2022/07/22 05:53:45;;;;;;;;;;;18.00;99.90;;;;;;5074966;28;19908;-72
2022/07/22 05:56:11;;;;;;;;;;;18.10;99.90;;;;;;5073336;28;19908;-73
2022/07/22 05:58:38;;;;;;;;;;;18.10;99.90;;;;;;5074617;28;19904;-72
2022/07/22 06:01:03;;;;;;;;;;;18.20;99.90;;;;;;5074816;28;19905;-72
2022/07/22 06:03:29;;;;;;;;;;;18.20;99.90;;;;;;5074828;28;20019;-73
2022/07/22 06:05:54;;;;;;;;;;;18.30;99.90;;;;;;5074418;28;19905;-73
2022/07/22 06:08:20;;;;;;;;;;;18.40;99.90;;;;;;5074425;28;20376;-73
2022/07/22 06:10:46;;;;;;;;;;;18.50;99.90;;;;;;5075457;28;20015;-71
2022/07/22 06:13:11;;;;;;;;;;;18.50;99.90;;;;;;5074321;28;19904;-71
2022/07/22 06:15:37;;;;;;;;;;;18.60;99.90;;;;;;5074500;28;19904;-71
2022/07/22 06:18:02;;;;;;;;;;;18.60;99.90;;;;;;5074242;28;19904;-71
2022/07/22 06:20:28;;;;;;;;;;;18.70;99.90;;;;;;5074231;28;19904;-71
2022/07/22 06:22:53;;;;;;;;;;;18.80;99.90;;;;;;5074177;28;19994;-71
2022/07/22 06:25:19;;;;;;;;;;;18.80;99.90;;;;;;5074086;28;19976;-71
2022/07/22 06:27:44;;;;;;;;;;;18.90;99.90;;;;;;5072876;28;19947;-71
2022/07/22 06:30:10;;;;;;;;;;;19.00;99.90;;;;;;5074357;28;20271;-71
2022/07/22 06:32:36;;;;;;;;;;;19.10;99.90;;;;;;5074050;28;19915;-71
2022/07/22 06:35:02;;;;;;;;;;;19.20;99.90;;;;;;5073436;28;20327;-71
2022/07/22 06:37:27;;;;;;;;;;;19.30;99.90;;;;;;5072733;28;19908;-71
2022/07/22 06:39:53;;;;;;;;;;;19.40;99.90;;;;;;5072690;28;19954;-71
2022/07/22 06:42:18;;;;;;;;;;;19.40;99.90;;;;;;5072540;28;19930;-70
2022/07/22 06:44:44;;;;;;;;;;;19.50;99.90;;;;;;5072462;28;19904;-71
2022/07/22 06:47:09;;;;;;;;;;;19.60;99.90;;;;;;5073543;28;19905;-70
2022/07/22 06:49:35;;;;;;;;;;;19.70;99.90;;;;;;5073777;28;19909;-71
2022/07/22 06:52:01;;;;;;;;;;;19.80;99.90;;;;;;5066924;28;20365;-71
2022/07/22 06:54:27;;;;;;;;;;;20.00;99.90;;;;;;5053852;28;19912;-71
2022/07/22 06:56:53;;;;;;;;;;;20.00;99.90;;;;;;5062710;28;19905;-71
2022/07/22 06:59:18;;;;;;;;;;;20.10;99.90;;;;;;5073535;28;19911;-71
2022/07/22 07:01:44;;;;;;;;;;;20.30;99.90;;;;;;5079488;28;19994;-71
2022/07/22 07:04:09;;;;;;;;;;;20.30;99.90;;;;;;5093648;28;19916;-71
2022/07/22 07:06:35;;;;;;;;;;;20.50;99.90;;;;;;5093910;28;19911;-71
2022/07/22 07:09:00;;;;;;;;;;;20.60;99.90;;;;;;5092527;28;19904;-71
2022/07/22 07:11:26;;;;;;;;;;;20.70;99.90;;;;;;5094137;28;19908;-71
2022/07/22 07:13:51;;;;;;;;;;;20.80;99.90;;;;;;5092544;28;20010;-71
2022/07/22 07:16:17;;;;;;;;;;;20.90;99.90;;;;;;5093742;28;19904;-71
2022/07/22 07:18:43;;;;;;;;;;;21.10;99.90;;;;;;5093773;28;19904;-71
2022/07/22 07:21:08;;;;;;;;;;;21.20;99.90;;;;;;5093697;28;19904;-71
2022/07/22 07:23:34;;;;;;;;;;;21.30;99.90;;;;;;5093748;28;19904;-71
2022/07/22 07:25:59;;;;;;;;;;;21.40;99.90;;;;;;5076478;28;19954;-71
2022/07/22 07:28:25;;;;;;;;;;;21.50;99.90;;;;;;5072725;28;19950;-71
2022/07/22 07:30:50;;;;;;;;;;;21.70;99.90;;;;;;5073667;28;19923;-71
2022/07/22 07:33:16;;;;;;;;;;;21.80;99.90;;;;;;5073447;28;20397;-71
2022/07/22 07:35:42;;;;;;;;;;;22.00;99.90;;;;;;5069193;28;20422;-71
2022/07/22 07:38:07;;;;;;;;;;;22.10;99.90;;;;;;5051596;28;19931;-72
2022/07/22 07:40:33;;;;;;;;;;;22.20;99.90;;;;;;5051375;28;20376;-72
2022/07/22 07:42:59;;;;;;;;;;;22.30;99.90;;;;;;5051268;28;20261;-73
2022/07/22 07:45:24;;;;;;;;;;;22.40;99.90;;;;;;5051589;28;19912;-72
2022/07/22 07:47:50;;;;;;;;;;;22.50;99.90;;;;;;5053301;28;19908;-71
2022/07/22 07:50:16;;;;;;;;;;;22.60;99.90;;;;;;5054227;28;19919;-71
2022/07/22 07:52:42;;;;;;;;;;;22.70;99.90;;;;;;5055545;28;20422;-72
2022/07/22 07:55:08;;;;;;;;;;;22.70;99.90;;;;;;5056918;28;19944;-70
2022/07/22 07:57:34;;;;;;;;;;;22.80;99.90;;;;;;5056951;28;19904;-70
2022/07/22 08:00:00;;;;;;;;;;;22.90;99.90;;;;;;5056945;28;19959;-71
2022/07/22 08:02:25;;;;;;;;;;;23.00;99.90;;;;;;5057454;28;19904;-70
2022/07/22 08:04:51;;;;;;;;;;;23.20;99.90;;;;;;5056940;28;20315;-71
2022/07/22 08:07:16;;;;;;;;;;;23.30;99.90;;;;;;5057065;28;19916;-70
2022/07/22 08:09:42;;;;;;;;;;;23.50;99.90;;;;;;5055412;28;19916;-70
2022/07/22 08:12:08;;;;;;;;;;;23.60;99.90;;;;;;5056683;28;19904;-70
2022/07/22 08:14:33;;;;;;;;;;;23.70;99.90;;;;;;5056587;28;19993;-71
2022/07/22 08:16:59;;;;;;;;;;;23.80;99.90;;;;;;5056830;28;19912;-71
2022/07/22 08:19:24;;;;;;;;;;;23.90;99.90;;;;;;5056850;28;19905;-71
2022/07/22 08:21:50;;;;;;;;;;;24.10;99.90;;;;;;5056847;28;20341;-71
2022/07/22 08:24:15;;;;;;;;;;;24.20;99.90;;;;;;5056403;28;19904;-71
2022/07/22 08:26:41;;;;;;;;;;;24.30;99.90;;;;;;5055159;28;19912;-70
2022/07/22 08:29:09;;;;;;;;;;;24.50;99.90;;;;;;5056632;28;19917;-70
2022/07/22 08:31:35;;;;;;;;;;;24.60;99.90;;;;;;5056623;28;19905;-70
2022/07/22 08:34:02;;;;;;;;;;;24.70;99.80;;;;;;5056268;28;19935;-70
2022/07/22 08:36:28;;;;;;;;;;;24.90;99.90;;;;;;5056193;28;19963;-70
2022/07/22 08:38:53;;;;;;;;;;;24.90;99.90;;;;;;5056167;28;19905;-70
2022/07/22 08:41:20;;;;;;;;;;;25.00;99.10;;;;;;5056693;28;19905;-71
2022/07/22 08:43:46;;;;;;;;;;;25.10;97.50;;;;;;5056095;28;20284;-71
2022/07/22 08:46:12;;;;;;;;;;;25.20;97.60;;;;;;5055997;28;19992;-71
2022/07/22 08:48:38;;;;;;;;;;;25.20;98.10;;;;;;5056044;28;19994;-71
2022/07/22 08:51:04;;;;;;;;;;;25.20;97.40;;;;;;5056229;28;19999;-71
2022/07/22 08:53:29;;;;;;;;;;;25.30;97.70;;;;;;5056229;28;19978;-70
2022/07/22 08:55:55;;;;;;;;;;;25.40;97.10;;;;;;5055786;28;19905;-71
2022/07/22 08:58:20;;;;;;;;;;;25.50;97.70;;;;;;5055591;28;19949;-71
2022/07/22 09:00:46;;;;;;;;;;;25.50;97.20;;;;;;5055713;28;19909;-71
2022/07/22 09:03:20;;;;;;;;;;;25.60;98.00;;;;;;5055557;28;19905;-70
2022/07/22 09:05:46;;;;;;;;;;;25.70;97.40;;;;;;5055659;28;19905;-71
2022/07/22 09:08:11;;;;;;;;;;;25.90;97.30;;;;;;5054333;28;20387;-70
2022/07/22 09:10:37;;;;;;;;;;;26.00;96.50;;;;;;5055471;28;19912;-70
2022/07/22 09:13:07;;;;;;;;;;;26.20;95.70;;;;;;5055519;28;19911;-70
2022/07/22 09:15:35;;;;;;;;;;;26.30;95.80;;;;;;5055427;28;19947;-70
2022/07/22 09:18:01;;;;;;;;;;;26.40;95.20;;;;;;5055396;28;19905;-70
2022/07/22 09:20:27;;;;;;;;;;;26.40;94.80;;;;;;5055320;28;19909;-70
2022/07/22 09:22:53;;;;;;;;;;;26.60;94.70;;;;;;5055319;28;19905;-70
2022/07/22 09:25:20;;;;;;;;;;;26.70;94.10;;;;;;5055217;28;20043;-70
2022/07/22 09:27:46;;;;;;;;;;;26.90;93.70;;;;;;5055297;28;19940;-70
2022/07/22 09:30:13;;;;;;;;;;;26.90;93.30;;;;;;5053839;28;19952;-70
2022/07/22 09:32:43;;;;;;;;;;;26.90;93.80;;;;;;5055452;28;19942;-70
2022/07/22 09:35:10;;;;;;;;;;;27.00;94.40;;;;;;5055095;28;19920;-70
2022/07/22 09:37:47;;;;;;;;;;;27.00;92.70;;;;;;5055093;28;19905;-69
2022/07/22 09:40:13;;;;;;;;;;;27.10;91.80;;;;;;5054149;28;19905;-70
2022/07/22 09:42:46;;;;;;;;;;;27.20;92.70;;;;;;5054082;28;20276;-70
2022/07/22 09:45:12;;;;;;;8.10;6.47;;;27.30;92.70;;;;;;5054408;28;19916;-71
2022/07/22 09:47:41;;;;;;;8.30;6.07;;;27.50;92.10;;;;;;5054623;28;20025;-70
2022/07/22 09:50:19;;;;;;;7.68;6.10;;;27.60;91.80;;;;;;5054326;28;20053;-70
2022/07/22 09:52:45;;;;;;;;;;;27.60;91.00;;;;;;5054210;28;20151;-70
2022/07/22 09:55:10;;;;;;;;;;;27.80;90.30;;;;;;5054670;28;20111;-70
2022/07/22 09:57:36;;;;;;;;;;;27.90;91.80;;;;;;5055218;28;20007;-70
2022/07/22 10:00:02;;;;;;;;;;;28.00;90.40;;;;;;5053444;28;20287;-70
2022/07/22 10:02:29;;;;;;;;;;;28.10;88.90;;;;;;5054655;28;19905;-70
2022/07/22 10:04:55;;;;;;;;;;;28.10;90.30;;;;;;5053137;28;20353;-70
2022/07/22 10:07:22;;;;;;;;;;;28.20;90.40;;;;;;5054459;28;19905;-69
2022/07/22 10:09:48;;;;;;;;;;;28.30;90.90;;;;;;5053749;28;19915;-69
2022/07/22 10:12:14;;;;;;;;;;;28.40;89.80;;;;;;5054108;28;19905;-70
2022/07/22 10:14:40;;;;;;;;;;;28.40;89.20;;;;;;5053324;28;20411;-70
2022/07/22 10:17:05;;;;;;;;;;;28.40;89.50;;;;;;5054275;28;19988;-70
2022/07/22 10:19:31;;;;;;;;;;;28.50;88.40;;;;;;5054122;28;19904;-70
2022/07/22 10:21:57;;;;;;;;;;;28.50;87.90;;;;;;5054152;28;19958;-70
2022/07/22 10:24:23;;;;;;;;;;;28.50;87.30;;;;;;5054079;28;19912;-70
2022/07/22 10:26:54;;;;;;;;;;;28.60;86.10;;;;;;5054036;28;19928;-69
2022/07/22 10:29:24;;;;;;;;;;;28.60;86.80;;;;;;5053942;28;19908;-70
2022/07/22 10:31:50;;;;;;;;;;;28.80;87.70;;;;;;5054081;28;19990;-69
2022/07/22 10:34:15;;;;;;;;;;;28.90;85.90;;;;;;5053818;28;19959;-70
2022/07/22 10:36:42;;;;;;;;;;;29.10;83.30;;;;;;5053970;28;19911;-70
2022/07/22 10:39:09;;;;;;;;;;;29.20;83.80;;;;;;5058321;28;20003;-71
2022/07/22 10:41:36;;;;;;;;;;;29.20;83.60;;;;;;5072402;28;19908;-70
2022/07/22 10:44:02;;;;;;;;;;;29.30;83.40;;;;;;5074125;28;19904;-70
2022/07/22 10:47:03;;;;;;;;;;;29.30;83.00;;;;;;5078431;28;20412;-70
2022/07/22 10:49:28;;;;;;;;;;;29.40;83.80;;;;;;5071696;28;19915;-70
2022/07/22 10:52:03;;;;;;;;;;;29.50;81.70;;;;;;5089220;28;19908;-70
2022/07/22 10:54:28;;;;;;;;;;;29.60;82.90;;;;;;5094501;28;19904;-70
2022/07/22 10:56:54;;;;;;;;;;;29.60;81.50;;;;;;5093976;28;19926;-70
2022/07/22 10:59:21;;;;;;;;;;;29.60;81.20;;;;;;5085844;28;19978;-69
2022/07/22 11:01:48;;;;;;;;;;;29.70;81.50;;;;;;5069644;28;19916;-70
2022/07/22 11:04:23;;;;;;;;;;;29.80;81.40;;;;;;5072981;28;19909;-71
2022/07/22 11:06:50;;;;;;;;;;;29.90;82.10;;;;;;5072087;28;19955;-70
2022/07/22 11:09:17;;;;;;;;;;;29.90;79.40;;;;;;5069238;28;19926;-73
2022/07/22 11:11:50;;;;;;;;;;;30.00;79.70;;;;;;5070238;28;19912;-72
2022/07/22 11:14:32;;;;;;;;;;;30.10;80.70;;;;;;5065193;28;19908;-73
2022/07/22 11:16:59;;;;;;;;;;;30.30;80.30;;;;;;5068139;28;19915;-72
2022/07/22 11:19:26;;;;;;;;;;;30.50;80.50;;;;;;5068117;28;20365;-71
2022/07/22 11:21:53;;;;;;;;;;;30.50;80.10;;;;;;5070831;28;19954;-71
2022/07/22 11:24:20;;;;;;;;;;;30.60;79.10;;;;;;5074502;28;20300;-71
2022/07/22 11:26:46;;;;;;;;;;;30.70;79.40;;;;;;5077876;28;19901;-71
2022/07/22 11:29:18;;;;;;;;;;;30.90;78.80;;;;;;5074805;28;19909;-71
2022/07/22 11:31:44;;;;;;;;;;;30.90;77.80;;;;;;5075168;28;19909;-71
2022/07/22 11:34:12;;;;;;;;;;;30.90;77.30;;;;;;5075621;28;19912;-69
2022/07/22 11:36:39;;;;;;;;;;;30.90;77.80;;;;;;5076271;28;20033;-70
2022/07/22 11:39:06;;;;;;;;;;;31.10;79.10;;;;;;5076061;28;20349;-70
2022/07/22 11:41:32;;;;;;;;;;;31.10;77.90;;;;;;5076122;28;19904;-71
2022/07/22 11:43:58;;;;;;;;;;;31.20;74.10;;;;;;5076135;28;19908;-72
2022/07/22 11:46:25;;;;;;;;;;;31.20;75.90;;;;;;5075905;28;20369;-72
2022/07/22 11:48:51;;;;;;;;;;;31.30;75.40;;;;;;5076903;28;19904;-71
2022/07/22 11:51:17;;;;;;;;;;;31.50;77.50;;;;;;5109589;28;20391;-71
2022/07/22 11:53:42;;;;;;;;;;;31.60;74.10;;;;;;5077331;28;19904;-70
2022/07/22 11:56:08;;;;;;;;;;;31.70;73.70;;;;;;5076856;28;19911;-71
2022/07/22 11:58:34;;;;;;;;;;;31.70;76.70;;;;;;5077128;28;20333;-71
2022/07/22 12:00:59;;;;;;;;;;;31.80;75.30;;;;;;5077072;28;19935;-71
2022/07/22 12:03:25;;;;;;;;;;;31.80;76.20;;;;;;5076802;28;19998;-71
2022/07/22 12:05:51;;;;;;;;;;;31.90;72.70;;;;;;5109957;28;19943;-71
2022/07/22 12:08:16;;;;;;;;;;;31.90;72.90;;;;;;5077686;28;19908;-71
2022/07/22 12:10:42;;;;;;;;;;;31.90;72.40;;;;;;5077347;28;19914;-72
2022/07/22 12:13:10;;;;;;;;;;;31.90;70.80;;;;;;5076662;28;19910;-71
2022/07/22 12:15:36;;;;;;;;;;;31.80;71.60;;;;;;5076827;28;20272;-72
2022/07/22 12:18:16;;;;;;;;;;;31.80;72.60;;;;;;5077020;28;19991;-72
2022/07/22 12:20:43;;;;;;;;;;;31.90;71.50;;;;;;5076024;28;20269;-72
2022/07/22 12:23:09;;;;;;;;;;;32.10;71.90;;;;;;5076438;28;19908;-72
2022/07/22 12:25:48;;;;;;;;;;;32.20;69.70;;;;;;5075286;28;19912;-72
2022/07/22 12:28:14;;;;;;;;;;;32.40;70.50;;;;;;5108596;28;19962;-73
2022/07/22 12:30:40;;;;;;;;;;;32.50;69.50;;;;;;5074759;28;20336;-72
2022/07/22 12:33:12;;;;;;;;;;;32.50;68.50;;;;;;5074415;28;20066;-74
2022/07/22 12:35:37;;;;;;;;;;;32.50;68.40;;;;;;5075194;28;19977;-73
2022/07/22 12:38:10;;;;;;;;;;;32.50;69.00;;;;;;5076517;28;19904;-73
2022/07/22 12:40:37;;;;;;;;;;;32.60;71.00;;;;;;5074994;28;19908;-73
2022/07/22 12:43:06;;;;;;;;;;;32.70;68.20;;;;;;5074305;28;19904;-73
2022/07/22 12:45:33;;;;;;;;;;;32.70;69.40;;;;;;5075163;28;19927;-73
2022/07/22 12:48:03;;;;;;;;;;;32.70;69.30;;;;;;5073662;28;19904;-74
2022/07/22 12:50:30;;;;;;;9.55;7.72;;;32.70;68.10;;;;;;5076127;28;19915;-73
2022/07/22 12:53:02;;;;;;;9.20;7.30;;;32.50;67.90;;;;;;5073932;28;20031;-73
2022/07/22 12:55:29;;;;;;;8.45;6.97;;;32.50;69.10;;;;;;5075490;28;19999;-73
2022/07/22 12:57:55;;;;;;;9.13;7.55;;;32.50;67.60;;;;;;5076015;28;20026;-73
2022/07/22 13:00:23;;;;;;;8.48;7.22;;;32.40;68.00;;;;;;5075432;28;20038;-72
2022/07/22 13:02:49;;;;;;;10.80;7.85;;;32.40;70.60;;;;;;5075308;28;20491;-72
2022/07/22 13:05:15;;;;;;;;;;;32.50;67.40;;;;;;5073765;28;20567;-74
2022/07/22 13:07:42;;;;;;;8.63;7.73;;;32.60;67.40;;;;;;5074101;28;19915;-74
2022/07/22 13:10:08;;;;;;;9.37;7.63;;;32.60;68.20;;;;;;5075067;28;20032;-73
2022/07/22 13:12:34;;;;;;;9.40;7.20;;;32.70;67.60;;;;;;5075266;28;20074;-74
2022/07/22 13:15:00;;;;;;;8.23;7.40;;;32.50;66.90;;;;;;5075502;28;20417;-74
2022/07/22 13:17:25;;;;;;;;;;;32.50;67.50;;;;;;5075155;28;20043;-74
2022/07/22 13:19:51;;;;;;;;;;;32.60;66.20;;;;;;5073677;28;20421;-73
2022/07/22 13:22:16;;;;;;;;;;;32.70;68.10;;;;;;5074396;28;20097;-74
2022/07/22 13:24:42;;;;;;;10.20;8.40;;;32.70;67.00;;;;;;5074384;28;20039;-74
2022/07/22 13:27:08;;;;;;;;;;;32.70;67.50;;;;;;5074723;28;20028;-74
2022/07/22 13:29:33;;;;;;;9.60;7.70;;;32.60;66.90;;;;;;5073596;28;20069;-73
2022/07/22 13:31:59;;;;;;;8.98;7.95;;;32.70;67.40;;;;;;5075182;28;20024;-74
2022/07/22 13:34:25;;;;;;;9.93;7.77;;;32.60;68.20;;;;;;5073405;28;20035;-74
2022/07/22 13:36:50;;;;;;;;;;;32.60;65.00;;;;;;5073830;28;20033;-74
2022/07/22 13:39:16;;;;;;;;;;;32.60;65.60;;;;;;5073634;28;20402;-74
2022/07/22 13:41:41;;;;;;;;;;;32.60;66.40;;;;;;5072601;28;20281;-74
2022/07/22 13:44:07;;;;;;;;;;;32.60;67.60;;;;;;5071796;28;24116;-74
2022/07/22 13:46:36;;;;;;;;;;;32.60;68.80;;;;;;5071437;28;19905;-73
2022/07/22 13:49:01;;;;;;;;;;;32.70;67.00;;;;;;5072931;28;19948;-74
2022/07/22 13:51:27;;;;;;;;;;;32.60;66.30;;;;;;5072631;28;20355;-74
2022/07/22 13:53:53;;;;;;;;;;;32.50;67.40;;;;;;5080461;28;19908;-73
2022/07/22 13:56:18;;;;;;;;;;;32.40;68.40;;;;;;5070680;28;20032;-73
2022/07/22 13:58:44;;;;;;;;;;;32.40;66.90;;;;;;5072480;28;19908;-74
2022/07/22 14:01:09;;;;;;;;;;;32.30;67.20;;;;;;5072394;28;20024;-74
2022/07/22 14:03:36;;;;;;;;;;;32.40;68.00;;;;;;5072347;28;19908;-73
2022/07/22 14:06:09;;;;;;;9.27;8.23;;;32.40;67.00;;;;;;5106358;27;20096;-74